sensor_id;sensor_type;location;lat;lon;timestamp;P1;durP1;ratioP1;P2;durP2;ratioP2
50745;SDS011;36711;51.972;21.204;2022-07-30T00:01:46;2.40;;;0.80;;
50745;SDS011;36711;51.972;21.204;2022-07-30T00:04:13;1.80;;;0.70;;
50745;SDS011;36711;51.972;21.204;2022-07-30T00:06:41;1.60;;;0.70;;
50745;SDS011;36711;51.972;21.204;2022-07-30T00:09:09;2.20;;;0.90;;
50745;SDS011;36711;51.972;21.204;2022-07-30T00:11:36;2.60;;;0.80;;
50745;SDS011;36711;51.972;21.204;2022-07-30T00:14:04;0.70;;;0.60;;
50745;SDS011;36711;51.972;21.204;2022-07-30T00:16:32;1.60;;;0.90;;
50745;SDS011;36711;51.972;21.204;2022-07-30T00:19:00;4.10;;;0.90;;
50745;SDS011;36711;51.972;21.204;2022-07-30T00:21:29;4.20;;;0.90;;
50745;SDS011;36711;51.972;21.204;2022-07-30T00:24:05;1.30;;;0.60;;
50745;SDS011;36711;51.972;21.204;2022-07-30T00:26:34;1.80;;;0.80;;
50745;SDS011;36711;51.972;21.204;2022-07-30T00:29:03;0.90;;;0.70;;
50745;SDS011;36711;51.972;21.204;2022-07-30T00:31:31;3.20;;;0.80;;
50745;SDS011;36711;51.972;21.204;2022-07-30T00:33:59;0.90;;;0.70;;
50745;SDS011;36711;51.972;21.204;2022-07-30T00:36:27;2.10;;;0.70;;
50745;SDS011;36711;51.972;21.204;2022-07-30T00:38:54;2.70;;;0.70;;
50745;SDS011;36711;51.972;21.204;2022-07-30T00:41:22;4.60;;;0.90;;
50745;SDS011;36711;51.972;21.204;2022-07-30T00:43:51;1.10;;;0.70;;
50745;SDS011;36711;51.972;21.204;2022-07-30T00:46:18;6.90;;;0.80;;
50745;SDS011;36711;51.972;21.204;2022-07-30T00:48:46;2.20;;;0.70;;
50745;SDS011;36711;51.972;21.204;2022-07-30T00:51:14;1.90;;;1.00;;
50745;SDS011;36711;51.972;21.204;2022-07-30T00:53:42;2.60;;;1.00;;
50745;SDS011;36711;51.972;21.204;2022-07-30T00:56:09;1.00;;;0.70;;
50745;SDS011;36711;51.972;21.204;2022-07-30T00:58:37;1.50;;;0.50;;
50745;SDS011;36711;51.972;21.204;2022-07-30T01:01:05;2.20;;;0.70;;
50745;SDS011;36711;51.972;21.204;2022-07-30T01:03:32;1.80;;;0.70;;
50745;SDS011;36711;51.972;21.204;2022-07-30T01:06:00;2.20;;;0.80;;
50745;SDS011;36711;51.972;21.204;2022-07-30T01:08:28;3.60;;;0.90;;
50745;SDS011;36711;51.972;21.204;2022-07-30T01:10:55;4.10;;;0.90;;
50745;SDS011;36711;51.972;21.204;2022-07-30T01:13:23;1.10;;;0.70;;
50745;SDS011;36711;51.972;21.204;2022-07-30T01:15:51;1.50;;;0.70;;
50745;SDS011;36711;51.972;21.204;2022-07-30T01:18:18;2.30;;;0.70;;
50745;SDS011;36711;51.972;21.204;2022-07-30T01:20:56;1.20;;;0.90;;
50745;SDS011;36711;51.972;21.204;2022-07-30T01:23:38;0.70;;;0.40;;
50745;SDS011;36711;51.972;21.204;2022-07-30T01:26:10;2.10;;;0.80;;
50745;SDS011;36711;51.972;21.204;2022-07-30T01:28:41;1.10;;;0.70;;
50745;SDS011;36711;51.972;21.204;2022-07-30T01:31:12;1.10;;;0.50;;
50745;SDS011;36711;51.972;21.204;2022-07-30T01:33:42;0.90;;;0.70;;
50745;SDS011;36711;51.972;21.204;2022-07-30T01:36:13;1.90;;;0.60;;
50745;SDS011;36711;51.972;21.204;2022-07-30T01:38:44;3.80;;;0.70;;
50745;SDS011;36711;51.972;21.204;2022-07-30T01:41:13;4.00;;;0.70;;
50745;SDS011;36711;51.972;21.204;2022-07-30T01:43:42;3.60;;;0.70;;
50745;SDS011;36711;51.972;21.204;2022-07-30T01:46:13;1.60;;;0.60;;
50745;SDS011;36711;51.972;21.204;2022-07-30T01:48:43;2.30;;;0.80;;
50745;SDS011;36711;51.972;21.204;2022-07-30T01:51:12;2.00;;;0.80;;
50745;SDS011;36711;51.972;21.204;2022-07-30T01:53:40;0.80;;;0.80;;
50745;SDS011;36711;51.972;21.204;2022-07-30T01:56:10;1.90;;;0.70;;
50745;SDS011;36711;51.972;21.204;2022-07-30T01:58:43;1.00;;;0.80;;
50745;SDS011;36711;51.972;21.204;2022-07-30T02:01:13;1.00;;;0.80;;
50745;SDS011;36711;51.972;21.204;2022-07-30T02:03:41;3.20;;;0.70;;
50745;SDS011;36711;51.972;21.204;2022-07-30T02:06:13;1.50;;;0.90;;
50745;SDS011;36711;51.972;21.204;2022-07-30T02:08:53;4.20;;;0.80;;
50745;SDS011;36711;51.972;21.204;2022-07-30T02:11:23;1.70;;;0.80;;
50745;SDS011;36711;51.972;21.204;2022-07-30T02:14:16;3.00;;;0.70;;
50745;SDS011;36711;51.972;21.204;2022-07-30T02:16:49;2.50;;;0.70;;
50745;SDS011;36711;51.972;21.204;2022-07-30T02:19:23;3.60;;;1.10;;
50745;SDS011;36711;51.972;21.204;2022-07-30T02:22:03;2.90;;;0.90;;
50745;SDS011;36711;51.972;21.204;2022-07-30T02:24:33;3.30;;;0.80;;
50745;SDS011;36711;51.972;21.204;2022-07-30T02:27:05;3.10;;;0.80;;
50745;SDS011;36711;51.972;21.204;2022-07-30T02:29:36;3.60;;;0.80;;
50745;SDS011;36711;51.972;21.204;2022-07-30T02:32:05;3.70;;;0.80;;
50745;SDS011;36711;51.972;21.204;2022-07-30T02:34:36;3.50;;;0.90;;
50745;SDS011;36711;51.972;21.204;2022-07-30T02:37:07;1.30;;;0.90;;
50745;SDS011;36711;51.972;21.204;2022-07-30T02:39:37;2.80;;;0.80;;
50745;SDS011;36711;51.972;21.204;2022-07-30T02:42:06;5.10;;;1.00;;
50745;SDS011;36711;51.972;21.204;2022-07-30T02:44:35;1.70;;;1.00;;
50745;SDS011;36711;51.972;21.204;2022-07-30T02:47:04;4.30;;;0.80;;
50745;SDS011;36711;51.972;21.204;2022-07-30T02:49:33;5.30;;;1.00;;
50745;SDS011;36711;51.972;21.204;2022-07-30T02:52:03;3.20;;;1.20;;
50745;SDS011;36711;51.972;21.204;2022-07-30T02:54:31;3.30;;;0.90;;
50745;SDS011;36711;51.972;21.204;2022-07-30T02:56:59;5.70;;;1.00;;
50745;SDS011;36711;51.972;21.204;2022-07-30T02:59:29;3.10;;;0.80;;
50745;SDS011;36711;51.972;21.204;2022-07-30T03:01:58;2.10;;;1.00;;
50745;SDS011;36711;51.972;21.204;2022-07-30T03:04:27;2.70;;;0.80;;
50745;SDS011;36711;51.972;21.204;2022-07-30T03:06:56;1.00;;;0.90;;
50745;SDS011;36711;51.972;21.204;2022-07-30T03:09:28;3.00;;;1.10;;
50745;SDS011;36711;51.972;21.204;2022-07-30T03:12:16;1.50;;;0.90;;
50745;SDS011;36711;51.972;21.204;2022-07-30T03:14:45;2.80;;;1.00;;
50745;SDS011;36711;51.972;21.204;2022-07-30T03:17:14;5.20;;;1.00;;
50745;SDS011;36711;51.972;21.204;2022-07-30T03:19:42;3.00;;;1.00;;
50745;SDS011;36711;51.972;21.204;2022-07-30T03:22:12;1.50;;;1.00;;
50745;SDS011;36711;51.972;21.204;2022-07-30T03:24:41;1.20;;;1.00;;
50745;SDS011;36711;51.972;21.204;2022-07-30T03:27:10;1.90;;;0.80;;
50745;SDS011;36711;51.972;21.204;2022-07-30T03:29:40;3.60;;;0.90;;
50745;SDS011;36711;51.972;21.204;2022-07-30T03:32:08;2.10;;;1.00;;
50745;SDS011;36711;51.972;21.204;2022-07-30T03:34:40;3.50;;;1.10;;
50745;SDS011;36711;51.972;21.204;2022-07-30T03:37:10;4.00;;;1.10;;
50745;SDS011;36711;51.972;21.204;2022-07-30T03:39:38;5.80;;;1.20;;
50745;SDS011;36711;51.972;21.204;2022-07-30T03:42:07;4.40;;;1.20;;
50745;SDS011;36711;51.972;21.204;2022-07-30T03:44:36;1.70;;;1.50;;
50745;SDS011;36711;51.972;21.204;2022-07-30T03:47:04;4.40;;;1.30;;
50745;SDS011;36711;51.972;21.204;2022-07-30T03:49:33;1.30;;;1.10;;
50745;SDS011;36711;51.972;21.204;2022-07-30T03:52:01;3.50;;;1.10;;
50745;SDS011;36711;51.972;21.204;2022-07-30T03:54:33;1.90;;;1.00;;
50745;SDS011;36711;51.972;21.204;2022-07-30T03:57:02;1.90;;;1.10;;
50745;SDS011;36711;51.972;21.204;2022-07-30T03:59:30;1.50;;;1.10;;
50745;SDS011;36711;51.972;21.204;2022-07-30T04:02:00;3.50;;;1.00;;
50745;SDS011;36711;51.972;21.204;2022-07-30T04:04:33;1.40;;;1.00;;
50745;SDS011;36711;51.972;21.204;2022-07-30T04:07:01;2.20;;;1.10;;
50745;SDS011;36711;51.972;21.204;2022-07-30T04:09:29;4.10;;;1.10;;
50745;SDS011;36711;51.972;21.204;2022-07-30T04:11:57;1.40;;;1.10;;
50745;SDS011;36711;51.972;21.204;2022-07-30T04:14:25;6.20;;;1.00;;
50745;SDS011;36711;51.972;21.204;2022-07-30T04:19:28;2.00;;;1.10;;
50745;SDS011;36711;51.972;21.204;2022-07-30T04:21:57;2.50;;;1.10;;
50745;SDS011;36711;51.972;21.204;2022-07-30T04:24:28;1.50;;;0.90;;
50745;SDS011;36711;51.972;21.204;2022-07-30T04:26:57;2.80;;;1.00;;
50745;SDS011;36711;51.972;21.204;2022-07-30T04:29:27;1.50;;;1.00;;
50745;SDS011;36711;51.972;21.204;2022-07-30T04:31:55;1.40;;;0.90;;
50745;SDS011;36711;51.972;21.204;2022-07-30T04:34:23;1.30;;;0.90;;
50745;SDS011;36711;51.972;21.204;2022-07-30T04:36:50;3.70;;;0.90;;
50745;SDS011;36711;51.972;21.204;2022-07-30T04:39:18;1.40;;;0.70;;
50745;SDS011;36711;51.972;21.204;2022-07-30T04:41:46;1.10;;;0.80;;
50745;SDS011;36711;51.972;21.204;2022-07-30T04:44:19;1.30;;;1.10;;
50745;SDS011;36711;51.972;21.204;2022-07-30T04:46:47;1.40;;;0.90;;
50745;SDS011;36711;51.972;21.204;2022-07-30T04:49:15;3.20;;;0.80;;
50745;SDS011;36711;51.972;21.204;2022-07-30T04:51:44;6.50;;;0.90;;
50745;SDS011;36711;51.972;21.204;2022-07-30T04:54:13;1.50;;;0.90;;
50745;SDS011;36711;51.972;21.204;2022-07-30T04:56:44;1.10;;;0.80;;
50745;SDS011;36711;51.972;21.204;2022-07-30T04:59:20;1.60;;;1.00;;
50745;SDS011;36711;51.972;21.204;2022-07-30T05:01:51;3.10;;;1.10;;
50745;SDS011;36711;51.972;21.204;2022-07-30T05:04:22;1.50;;;1.10;;
50745;SDS011;36711;51.972;21.204;2022-07-30T05:06:51;1.80;;;1.30;;
50745;SDS011;36711;51.972;21.204;2022-07-30T05:09:20;1.80;;;0.80;;
50745;SDS011;36711;51.972;21.204;2022-07-30T05:11:49;1.40;;;1.10;;
50745;SDS011;36711;51.972;21.204;2022-07-30T05:14:21;3.00;;;1.00;;
50745;SDS011;36711;51.972;21.204;2022-07-30T05:16:50;1.20;;;0.90;;
50745;SDS011;36711;51.972;21.204;2022-07-30T05:19:19;1.00;;;0.90;;
50745;SDS011;36711;51.972;21.204;2022-07-30T05:21:48;2.60;;;1.00;;
50745;SDS011;36711;51.972;21.204;2022-07-30T05:24:15;4.50;;;0.90;;
50745;SDS011;36711;51.972;21.204;2022-07-30T05:26:44;1.10;;;1.00;;
50745;SDS011;36711;51.972;21.204;2022-07-30T05:29:12;4.60;;;1.30;;
50745;SDS011;36711;51.972;21.204;2022-07-30T05:31:46;4.10;;;1.40;;
50745;SDS011;36711;51.972;21.204;2022-07-30T05:34:14;2.10;;;1.60;;
50745;SDS011;36711;51.972;21.204;2022-07-30T05:36:42;3.00;;;1.30;;
50745;SDS011;36711;51.972;21.204;2022-07-30T05:39:11;2.00;;;1.50;;
50745;SDS011;36711;51.972;21.204;2022-07-30T05:41:39;3.00;;;1.60;;
50745;SDS011;36711;51.972;21.204;2022-07-30T05:44:07;2.90;;;1.50;;
50745;SDS011;36711;51.972;21.204;2022-07-30T05:46:35;1.80;;;1.30;;
50745;SDS011;36711;51.972;21.204;2022-07-30T05:49:02;2.40;;;1.60;;
50745;SDS011;36711;51.972;21.204;2022-07-30T05:51:31;2.30;;;1.50;;
50745;SDS011;36711;51.972;21.204;2022-07-30T05:53:59;2.80;;;1.90;;
50745;SDS011;36711;51.972;21.204;2022-07-30T05:56:27;5.10;;;2.10;;
50745;SDS011;36711;51.972;21.204;2022-07-30T05:58:54;4.20;;;2.00;;
50745;SDS011;36711;51.972;21.204;2022-07-30T06:01:22;4.10;;;1.50;;
50745;SDS011;36711;51.972;21.204;2022-07-30T06:03:50;2.50;;;1.70;;
50745;SDS011;36711;51.972;21.204;2022-07-30T06:06:18;3.50;;;1.90;;
50745;SDS011;36711;51.972;21.204;2022-07-30T06:08:49;2.60;;;1.70;;
50745;SDS011;36711;51.972;21.204;2022-07-30T06:11:17;4.90;;;1.70;;
50745;SDS011;36711;51.972;21.204;2022-07-30T06:13:45;3.20;;;1.70;;
50745;SDS011;36711;51.972;21.204;2022-07-30T06:16:12;4.80;;;1.50;;
50745;SDS011;36711;51.972;21.204;2022-07-30T06:18:40;3.70;;;1.40;;
50745;SDS011;36711;51.972;21.204;2022-07-30T06:21:08;4.60;;;1.40;;
50745;SDS011;36711;51.972;21.204;2022-07-30T06:23:35;1.70;;;1.40;;
50745;SDS011;36711;51.972;21.204;2022-07-30T06:26:03;3.90;;;1.50;;
50745;SDS011;36711;51.972;21.204;2022-07-30T06:28:31;2.80;;;1.30;;
50745;SDS011;36711;51.972;21.204;2022-07-30T06:31:05;4.50;;;1.20;;
50745;SDS011;36711;51.972;21.204;2022-07-30T06:33:33;3.50;;;1.10;;
50745;SDS011;36711;51.972;21.204;2022-07-30T06:36:01;2.30;;;1.10;;
50745;SDS011;36711;51.972;21.204;2022-07-30T06:38:28;1.70;;;1.10;;
50745;SDS011;36711;51.972;21.204;2022-07-30T06:40:56;2.30;;;1.00;;
50745;SDS011;36711;51.972;21.204;2022-07-30T06:43:30;1.20;;;1.10;;
50745;SDS011;36711;51.972;21.204;2022-07-30T06:45:58;2.10;;;1.20;;
50745;SDS011;36711;51.972;21.204;2022-07-30T06:48:28;1.50;;;1.00;;
50745;SDS011;36711;51.972;21.204;2022-07-30T06:50:57;2.80;;;1.20;;
50745;SDS011;36711;51.972;21.204;2022-07-30T06:53:25;0.90;;;0.90;;
50745;SDS011;36711;51.972;21.204;2022-07-30T06:55:54;1.00;;;1.00;;
50745;SDS011;36711;51.972;21.204;2022-07-30T06:58:26;6.20;;;1.10;;
50745;SDS011;36711;51.972;21.204;2022-07-30T07:00:55;3.60;;;1.30;;
50745;SDS011;36711;51.972;21.204;2022-07-30T07:03:23;6.50;;;1.10;;
50745;SDS011;36711;51.972;21.204;2022-07-30T07:06:05;2.40;;;1.30;;
50745;SDS011;36711;51.972;21.204;2022-07-30T07:08:36;3.50;;;1.30;;
50745;SDS011;36711;51.972;21.204;2022-07-30T07:11:04;1.20;;;1.10;;
50745;SDS011;36711;51.972;21.204;2022-07-30T07:13:32;3.00;;;1.00;;
50745;SDS011;36711;51.972;21.204;2022-07-30T07:16:00;3.20;;;1.20;;
50745;SDS011;36711;51.972;21.204;2022-07-30T07:18:28;4.50;;;1.30;;
50745;SDS011;36711;51.972;21.204;2022-07-30T07:20:56;1.90;;;1.20;;
50745;SDS011;36711;51.972;21.204;2022-07-30T07:23:24;3.00;;;1.30;;
50745;SDS011;36711;51.972;21.204;2022-07-30T07:26:07;1.80;;;1.00;;
50745;SDS011;36711;51.972;21.204;2022-07-30T07:28:35;2.00;;;1.00;;
50745;SDS011;36711;51.972;21.204;2022-07-30T07:31:03;3.40;;;1.10;;
50745;SDS011;36711;51.972;21.204;2022-07-30T07:33:31;2.60;;;1.30;;
50745;SDS011;36711;51.972;21.204;2022-07-30T07:35:59;1.80;;;1.20;;
50745;SDS011;36711;51.972;21.204;2022-07-30T07:38:26;5.40;;;1.50;;
50745;SDS011;36711;51.972;21.204;2022-07-30T07:40:54;2.00;;;1.50;;
50745;SDS011;36711;51.972;21.204;2022-07-30T07:43:22;3.30;;;1.60;;
50745;SDS011;36711;51.972;21.204;2022-07-30T07:45:51;2.70;;;1.50;;
50745;SDS011;36711;51.972;21.204;2022-07-30T07:48:19;5.20;;;1.50;;
50745;SDS011;36711;51.972;21.204;2022-07-30T07:50:47;5.10;;;1.60;;
50745;SDS011;36711;51.972;21.204;2022-07-30T07:53:14;2.80;;;1.60;;
50745;SDS011;36711;51.972;21.204;2022-07-30T07:55:42;3.30;;;1.60;;
50745;SDS011;36711;51.972;21.204;2022-07-30T07:58:11;3.40;;;1.80;;
50745;SDS011;36711;51.972;21.204;2022-07-30T08:00:48;6.60;;;2.20;;
50745;SDS011;36711;51.972;21.204;2022-07-30T08:03:16;2.20;;;2.00;;
50745;SDS011;36711;51.972;21.204;2022-07-30T08:05:43;2.30;;;1.70;;
50745;SDS011;36711;51.972;21.204;2022-07-30T08:08:31;2.50;;;1.60;;
50745;SDS011;36711;51.972;21.204;2022-07-30T08:10:59;3.40;;;1.40;;
50745;SDS011;36711;51.972;21.204;2022-07-30T08:13:27;4.20;;;1.60;;
50745;SDS011;36711;51.972;21.204;2022-07-30T08:16:14;5.80;;;1.60;;
50745;SDS011;36711;51.972;21.204;2022-07-30T08:18:42;3.00;;;1.60;;
50745;SDS011;36711;51.972;21.204;2022-07-30T08:21:10;2.70;;;1.30;;
50745;SDS011;36711;51.972;21.204;2022-07-30T08:23:37;4.60;;;1.50;;
50745;SDS011;36711;51.972;21.204;2022-07-30T08:26:08;5.10;;;1.50;;
50745;SDS011;36711;51.972;21.204;2022-07-30T08:28:36;3.70;;;1.60;;
50745;SDS011;36711;51.972;21.204;2022-07-30T08:31:04;3.90;;;1.70;;
50745;SDS011;36711;51.972;21.204;2022-07-30T08:36:40;4.80;;;1.80;;
50745;SDS011;36711;51.972;21.204;2022-07-30T08:39:08;4.90;;;2.00;;
50745;SDS011;36711;51.972;21.204;2022-07-30T08:41:36;6.10;;;2.30;;
50745;SDS011;36711;51.972;21.204;2022-07-30T08:44:04;8.00;;;2.50;;
50745;SDS011;36711;51.972;21.204;2022-07-30T08:46:39;6.00;;;2.70;;
50745;SDS011;36711;51.972;21.204;2022-07-30T08:49:14;7.60;;;2.20;;
50745;SDS011;36711;51.972;21.204;2022-07-30T08:51:42;7.40;;;2.70;;
50745;SDS011;36711;51.972;21.204;2022-07-30T08:54:10;2.80;;;2.20;;
50745;SDS011;36711;51.972;21.204;2022-07-30T08:56:38;5.00;;;2.30;;
50745;SDS011;36711;51.972;21.204;2022-07-30T08:59:05;5.70;;;2.10;;
50745;SDS011;36711;51.972;21.204;2022-07-30T09:01:33;4.00;;;2.20;;
50745;SDS011;36711;51.972;21.204;2022-07-30T09:04:02;1.60;;;1.50;;
50745;SDS011;36711;51.972;21.204;2022-07-30T09:06:35;4.50;;;1.80;;
50745;SDS011;36711;51.972;21.204;2022-07-30T09:09:03;2.40;;;2.10;;
50745;SDS011;36711;51.972;21.204;2022-07-30T09:11:32;3.20;;;2.00;;
50745;SDS011;36711;51.972;21.204;2022-07-30T09:14:08;2.80;;;1.80;;
50745;SDS011;36711;51.972;21.204;2022-07-30T09:16:37;2.50;;;1.90;;
50745;SDS011;36711;51.972;21.204;2022-07-30T09:19:13;3.50;;;1.70;;
50745;SDS011;36711;51.972;21.204;2022-07-30T09:21:56;4.00;;;1.70;;
50745;SDS011;36711;51.972;21.204;2022-07-30T09:24:24;3.90;;;1.80;;
50745;SDS011;36711;51.972;21.204;2022-07-30T09:27:02;1.50;;;1.30;;
50745;SDS011;36711;51.972;21.204;2022-07-30T09:29:36;1.40;;;1.30;;
50745;SDS011;36711;51.972;21.204;2022-07-30T09:32:05;1.80;;;1.40;;
50745;SDS011;36711;51.972;21.204;2022-07-30T09:34:37;3.30;;;1.30;;
50745;SDS011;36711;51.972;21.204;2022-07-30T09:42:17;3.40;;;1.50;;
50745;SDS011;36711;51.972;21.204;2022-07-30T09:44:46;3.10;;;1.30;;
50745;SDS011;36711;51.972;21.204;2022-07-30T09:47:30;4.90;;;1.70;;
50745;SDS011;36711;51.972;21.204;2022-07-30T09:50:16;3.10;;;1.60;;
50745;SDS011;36711;51.972;21.204;2022-07-30T09:53:06;2.70;;;1.60;;
50745;SDS011;36711;51.972;21.204;2022-07-30T09:55:35;2.90;;;1.40;;
50745;SDS011;36711;51.972;21.204;2022-07-30T09:58:09;1.80;;;1.40;;
50745;SDS011;36711;51.972;21.204;2022-07-30T10:00:56;2.10;;;1.60;;
50745;SDS011;36711;51.972;21.204;2022-07-30T10:03:27;2.90;;;1.70;;
50745;SDS011;36711;51.972;21.204;2022-07-30T10:06:04;4.70;;;1.70;;
50745;SDS011;36711;51.972;21.204;2022-07-30T10:08:48;5.20;;;1.70;;
50745;SDS011;36711;51.972;21.204;2022-07-30T10:11:18;2.80;;;2.00;;
50745;SDS011;36711;51.972;21.204;2022-07-30T10:13:53;3.30;;;1.80;;
50745;SDS011;36711;51.972;21.204;2022-07-30T10:16:25;2.70;;;2.10;;
50745;SDS011;36711;51.972;21.204;2022-07-30T10:18:56;1.80;;;1.60;;
50745;SDS011;36711;51.972;21.204;2022-07-30T10:21:26;3.00;;;1.80;;
50745;SDS011;36711;51.972;21.204;2022-07-30T10:23:58;4.20;;;1.60;;
50745;SDS011;36711;51.972;21.204;2022-07-30T10:26:26;3.60;;;1.50;;
50745;SDS011;36711;51.972;21.204;2022-07-30T10:28:55;4.50;;;1.60;;
50745;SDS011;36711;51.972;21.204;2022-07-30T10:31:24;3.20;;;2.10;;
50745;SDS011;36711;51.972;21.204;2022-07-30T10:34:13;3.00;;;1.90;;
50745;SDS011;36711;51.972;21.204;2022-07-30T10:36:47;3.30;;;1.80;;
50745;SDS011;36711;51.972;21.204;2022-07-30T10:39:23;2.50;;;2.00;;
50745;SDS011;36711;51.972;21.204;2022-07-30T10:42:00;3.70;;;1.90;;
50745;SDS011;36711;51.972;21.204;2022-07-30T10:44:50;4.70;;;2.00;;
50745;SDS011;36711;51.972;21.204;2022-07-30T10:47:28;6.80;;;2.20;;
50745;SDS011;36711;51.972;21.204;2022-07-30T10:52:59;5.20;;;1.70;;
50745;SDS011;36711;51.972;21.204;2022-07-30T10:55:28;2.50;;;1.60;;
50745;SDS011;36711;51.972;21.204;2022-07-30T10:58:07;4.60;;;2.20;;
50745;SDS011;36711;51.972;21.204;2022-07-30T11:03:20;3.90;;;2.60;;
50745;SDS011;36711;51.972;21.204;2022-07-30T11:08:42;4.60;;;2.10;;
50745;SDS011;36711;51.972;21.204;2022-07-30T11:14:08;9.90;;;2.70;;
50745;SDS011;36711;51.972;21.204;2022-07-30T11:19:09;4.50;;;2.40;;
50745;SDS011;36711;51.972;21.204;2022-07-30T11:22:21;3.80;;;2.00;;
50745;SDS011;36711;51.972;21.204;2022-07-30T11:24:50;4.50;;;1.70;;
50745;SDS011;36711;51.972;21.204;2022-07-30T11:43:26;3.30;;;1.60;;
50745;SDS011;36711;51.972;21.204;2022-07-30T11:46:07;4.70;;;2.00;;
50745;SDS011;36711;51.972;21.204;2022-07-30T11:48:55;2.50;;;1.70;;
50745;SDS011;36711;51.972;21.204;2022-07-30T11:51:40;5.00;;;1.80;;
50745;SDS011;36711;51.972;21.204;2022-07-30T11:54:10;7.60;;;2.00;;
50745;SDS011;36711;51.972;21.204;2022-07-30T11:59:19;19.10;;;3.70;;
50745;SDS011;36711;51.972;21.204;2022-07-30T12:01:50;18.80;;;2.80;;
50745;SDS011;36711;51.972;21.204;2022-07-30T12:04:19;9.30;;;2.50;;
50745;SDS011;36711;51.972;21.204;2022-07-30T12:06:47;5.20;;;2.40;;
50745;SDS011;36711;51.972;21.204;2022-07-30T12:09:21;4.80;;;2.20;;
50745;SDS011;36711;51.972;21.204;2022-07-30T12:11:54;4.10;;;2.20;;
50745;SDS011;36711;51.972;21.204;2022-07-30T12:14:23;4.50;;;1.90;;
50745;SDS011;36711;51.972;21.204;2022-07-30T12:16:51;5.20;;;2.20;;
50745;SDS011;36711;51.972;21.204;2022-07-30T12:19:20;5.70;;;2.20;;
50745;SDS011;36711;51.972;21.204;2022-07-30T12:21:48;3.80;;;1.90;;
50745;SDS011;36711;51.972;21.204;2022-07-30T12:24:23;6.60;;;2.70;;
50745;SDS011;36711;51.972;21.204;2022-07-30T12:27:02;5.60;;;2.30;;
50745;SDS011;36711;51.972;21.204;2022-07-30T12:29:33;6.90;;;2.40;;
50745;SDS011;36711;51.972;21.204;2022-07-30T12:32:02;8.80;;;2.70;;
50745;SDS011;36711;51.972;21.204;2022-07-30T12:34:30;4.60;;;2.30;;
50745;SDS011;36711;51.972;21.204;2022-07-30T12:37:07;5.90;;;2.40;;
50745;SDS011;36711;51.972;21.204;2022-07-30T12:39:36;5.90;;;2.00;;
50745;SDS011;36711;51.972;21.204;2022-07-30T12:42:06;4.60;;;1.90;;
50745;SDS011;36711;51.972;21.204;2022-07-30T12:44:45;5.30;;;2.40;;
50745;SDS011;36711;51.972;21.204;2022-07-30T12:47:19;4.20;;;2.10;;
50745;SDS011;36711;51.972;21.204;2022-07-30T12:49:51;4.20;;;2.30;;
50745;SDS011;36711;51.972;21.204;2022-07-30T12:54:59;3.80;;;2.00;;
50745;SDS011;36711;51.972;21.204;2022-07-30T12:57:54;4.70;;;2.30;;
50745;SDS011;36711;51.972;21.204;2022-07-30T13:00:24;2.80;;;2.30;;
50745;SDS011;36711;51.972;21.204;2022-07-30T13:02:56;5.60;;;2.60;;
50745;SDS011;36711;51.972;21.204;2022-07-30T13:08:16;6.20;;;2.30;;
50745;SDS011;36711;51.972;21.204;2022-07-30T13:10:54;4.10;;;2.20;;
50745;SDS011;36711;51.972;21.204;2022-07-30T13:13:28;3.40;;;2.40;;
50745;SDS011;36711;51.972;21.204;2022-07-30T13:15:58;4.20;;;2.80;;
50745;SDS011;36711;51.972;21.204;2022-07-30T13:18:29;3.50;;;2.60;;
50745;SDS011;36711;51.972;21.204;2022-07-30T13:20:59;7.30;;;3.10;;
50745;SDS011;36711;51.972;21.204;2022-07-30T13:23:28;7.00;;;3.30;;
50745;SDS011;36711;51.972;21.204;2022-07-30T13:25:56;7.40;;;2.60;;
50745;SDS011;36711;51.972;21.204;2022-07-30T13:28:24;5.70;;;2.30;;
50745;SDS011;36711;51.972;21.204;2022-07-30T13:30:52;3.40;;;2.50;;
50745;SDS011;36711;51.972;21.204;2022-07-30T13:33:20;3.40;;;2.40;;
50745;SDS011;36711;51.972;21.204;2022-07-30T13:35:47;5.00;;;2.40;;
50745;SDS011;36711;51.972;21.204;2022-07-30T13:38:15;5.20;;;2.50;;
50745;SDS011;36711;51.972;21.204;2022-07-30T13:40:43;8.30;;;2.30;;
50745;SDS011;36711;51.972;21.204;2022-07-30T13:43:11;3.90;;;2.30;;
50745;SDS011;36711;51.972;21.204;2022-07-30T13:45:38;6.50;;;2.80;;
50745;SDS011;36711;51.972;21.204;2022-07-30T13:48:06;4.80;;;2.50;;
50745;SDS011;36711;51.972;21.204;2022-07-30T13:50:34;4.90;;;2.70;;
50745;SDS011;36711;51.972;21.204;2022-07-30T13:53:01;9.50;;;2.70;;
50745;SDS011;36711;51.972;21.204;2022-07-30T13:55:29;6.50;;;2.70;;
50745;SDS011;36711;51.972;21.204;2022-07-30T13:57:57;4.20;;;2.90;;
50745;SDS011;36711;51.972;21.204;2022-07-30T14:00:26;7.30;;;2.70;;
50745;SDS011;36711;51.972;21.204;2022-07-30T14:03:00;2.60;;;2.30;;
50745;SDS011;36711;51.972;21.204;2022-07-30T14:05:38;5.10;;;2.10;;
50745;SDS011;36711;51.972;21.204;2022-07-30T14:08:09;3.10;;;2.20;;
50745;SDS011;36711;51.972;21.204;2022-07-30T14:10:38;4.50;;;2.30;;
50745;SDS011;36711;51.972;21.204;2022-07-30T14:13:06;2.80;;;2.30;;
50745;SDS011;36711;51.972;21.204;2022-07-30T14:15:45;5.40;;;2.30;;
50745;SDS011;36711;51.972;21.204;2022-07-30T14:18:12;5.90;;;2.40;;
50745;SDS011;36711;51.972;21.204;2022-07-30T14:20:40;3.30;;;2.40;;
50745;SDS011;36711;51.972;21.204;2022-07-30T14:23:14;3.70;;;2.20;;
50745;SDS011;36711;51.972;21.204;2022-07-30T14:25:42;3.50;;;2.10;;
50745;SDS011;36711;51.972;21.204;2022-07-30T14:28:11;4.50;;;2.00;;
50745;SDS011;36711;51.972;21.204;2022-07-30T14:30:39;2.50;;;2.00;;
50745;SDS011;36711;51.972;21.204;2022-07-30T14:33:06;4.20;;;2.30;;
50745;SDS011;36711;51.972;21.204;2022-07-30T14:35:34;4.40;;;2.50;;
50745;SDS011;36711;51.972;21.204;2022-07-30T14:38:02;3.10;;;2.20;;
50745;SDS011;36711;51.972;21.204;2022-07-30T14:40:30;8.80;;;2.20;;
50745;SDS011;36711;51.972;21.204;2022-07-30T14:42:58;3.40;;;2.30;;
50745;SDS011;36711;51.972;21.204;2022-07-30T14:45:25;7.20;;;2.50;;
50745;SDS011;36711;51.972;21.204;2022-07-30T14:47:56;5.10;;;2.10;;
50745;SDS011;36711;51.972;21.204;2022-07-30T14:50:23;3.40;;;1.70;;
50745;SDS011;36711;51.972;21.204;2022-07-30T14:52:51;3.70;;;2.10;;
50745;SDS011;36711;51.972;21.204;2022-07-30T14:55:19;5.30;;;2.20;;
50745;SDS011;36711;51.972;21.204;2022-07-30T14:57:47;6.20;;;2.10;;
50745;SDS011;36711;51.972;21.204;2022-07-30T15:00:14;2.40;;;2.20;;
50745;SDS011;36711;51.972;21.204;2022-07-30T15:02:42;3.00;;;2.00;;
50745;SDS011;36711;51.972;21.204;2022-07-30T15:05:10;3.50;;;1.90;;
50745;SDS011;36711;51.972;21.204;2022-07-30T15:07:37;4.90;;;1.80;;
50745;SDS011;36711;51.972;21.204;2022-07-30T15:10:06;3.50;;;2.10;;
50745;SDS011;36711;51.972;21.204;2022-07-30T15:12:34;4.50;;;2.30;;
50745;SDS011;36711;51.972;21.204;2022-07-30T15:15:04;4.10;;;2.30;;
50745;SDS011;36711;51.972;21.204;2022-07-30T15:17:34;2.80;;;2.30;;
50745;SDS011;36711;51.972;21.204;2022-07-30T15:20:05;2.40;;;1.70;;
50745;SDS011;36711;51.972;21.204;2022-07-30T15:22:35;3.40;;;1.90;;
50745;SDS011;36711;51.972;21.204;2022-07-30T15:25:03;3.60;;;1.80;;
50745;SDS011;36711;51.972;21.204;2022-07-30T15:27:31;3.20;;;2.00;;
50745;SDS011;36711;51.972;21.204;2022-07-30T15:30:01;3.90;;;2.50;;
50745;SDS011;36711;51.972;21.204;2022-07-30T15:32:30;4.60;;;2.40;;
50745;SDS011;36711;51.972;21.204;2022-07-30T15:34:57;3.40;;;2.00;;
50745;SDS011;36711;51.972;21.204;2022-07-30T15:37:25;3.60;;;2.50;;
50745;SDS011;36711;51.972;21.204;2022-07-30T15:39:53;5.50;;;2.30;;
50745;SDS011;36711;51.972;21.204;2022-07-30T15:42:21;5.80;;;2.60;;